Time;durP1;ratioP1;P1;durP2;ratioP2;P2;SDS_P1;SDS_P2;PMS_P1;PMS_P2;Temp;Humidity;BMP_temperature;BMP_pressure;BME280_temperature;BME280_humidity;BME280_pressure;Samples;Min_cycle;Max_cycle;Signal;HPM_P1;HPM_P2
2023/05/28 00:01:03;;;;;;;6.00;3.90;;;14.70;57.30;;;;;;934352;150;27445;-74
2023/05/28 00:03:26;;;;;;;5.20;4.07;;;14.60;57.40;;;;;;932773;149;27406;-73
2023/05/28 00:05:53;;;;;;;5.73;3.50;;;14.50;56.80;;;;;;950762;147;27383;-73
2023/05/28 00:08:20;;;;;;;8.27;4.27;;;14.50;57.60;;;;;;950749;147;27271;-75
2023/05/28 00:10:46;;;;;;;4.73;3.40;;;14.40;57.70;;;;;;933913;150;27489;-74
2023/05/28 00:13:13;;;;;;;5.03;3.73;;;14.30;57.90;;;;;;950502;147;27290;-74
2023/05/28 00:15:39;;;;;;;6.17;3.60;;;14.30;58.10;;;;;;950990;147;27436;-77
2023/05/28 00:18:08;;;;;;;5.57;3.60;;;14.20;58.20;;;;;;950626;147;27296;-76
2023/05/28 00:20:32;;;;;;;4.73;3.27;;;14.20;58.40;;;;;;949315;146;27435;-76
2023/05/28 00:23:00;;;;;;;5.90;3.33;;;14.10;58.60;;;;;;926098;151;27456;-75
2023/05/28 00:25:26;;;;;;;3.73;3.00;;;14.00;58.70;;;;;;949520;147;27364;-75
2023/05/28 00:27:52;;;;;;;6.33;3.50;;;14.00;58.90;;;;;;950651;147;27275;-75
2023/05/28 00:30:19;;;;;;;6.13;3.30;;;13.90;59.10;;;;;;950013;147;27398;-76
2023/05/28 00:32:46;;;;;;;6.30;3.70;;;13.90;59.30;;;;;;950085;147;27329;-76
2023/05/28 00:35:12;;;;;;;5.97;3.67;;;13.80;59.30;;;;;;950524;147;27364;-75
2023/05/28 00:37:38;;;;;;;5.90;3.80;;;13.80;59.50;;;;;;934556;149;27328;-76
2023/05/28 00:40:05;;;;;;;5.27;3.63;;;13.80;59.80;;;;;;927763;150;27459;-76
2023/05/28 00:42:32;;;;;;;6.23;4.47;;;13.70;59.90;;;;;;950464;147;27339;-75
2023/05/28 00:44:58;;;;;;;5.33;4.10;;;13.70;60.00;;;;;;949752;147;27350;-76
2023/05/28 00:47:25;;;;;;;6.90;3.60;;;13.60;60.00;;;;;;950569;147;27267;-76
2023/05/28 00:49:54;;;;;;;7.23;3.80;;;13.60;60.20;;;;;;925610;150;27527;-75
2023/05/28 00:52:18;;;;;;;4.20;3.57;;;13.60;60.40;;;;;;942938;151;27682;-74
2023/05/28 00:54:45;;;;;;;6.07;3.97;;;13.50;60.50;;;;;;944056;149;27524;-73
2023/05/28 00:57:12;;;;;;;5.23;3.93;;;13.50;60.70;;;;;;926916;152;27350;-74
2023/05/28 00:59:38;;;;;;;6.63;4.33;;;13.40;60.80;;;;;;967712;145;28041;-73
2023/05/28 01:02:05;;;;;;;7.23;3.87;;;13.40;61.10;;;;;;965881;145;27319;-73
2023/05/28 01:04:35;;;;;;;4.70;3.83;;;13.30;61.20;;;;;;967594;145;27407;-73
2023/05/28 01:07:01;;;;;;;4.93;4.07;;;13.30;61.50;;;;;;967513;145;27331;-73
2023/05/28 01:09:27;;;;;;;4.87;3.73;;;13.30;61.70;;;;;;967586;145;27448;-74
2023/05/28 01:11:54;;;;;;;6.57;3.70;;;13.20;61.80;;;;;;967382;145;27295;-73
2023/05/28 01:14:20;;;;;;;6.10;3.80;;;13.20;61.90;;;;;;967942;145;27442;-73
2023/05/28 01:16:48;;;;;;;5.27;4.30;;;13.10;62.00;;;;;;967897;145;27376;-73
2023/05/28 01:19:16;;;;;;;4.70;3.60;;;13.10;62.20;;;;;;967127;145;27305;-73
2023/05/28 01:21:40;;;;;;;5.27;3.67;;;13.10;62.40;;;;;;966489;145;27372;-73
2023/05/28 01:24:07;;;;;;;4.87;3.93;;;13.10;62.50;;;;;;930815;151;27374;-74
2023/05/28 01:26:33;;;;;;;8.53;4.10;;;13.00;62.60;;;;;;966913;145;27268;-74
2023/05/28 01:29:00;;;;;;;6.73;3.50;;;13.00;62.70;;;;;;928859;151;27361;-74
2023/05/28 01:31:26;;;;;;;6.23;4.00;;;13.00;62.80;;;;;;968182;145;27367;-74
2023/05/28 01:33:53;;;;;;;5.77;3.90;;;12.90;63.00;;;;;;966498;145;27449;-75
2023/05/28 01:36:20;;;;;;;6.23;3.83;;;12.90;63.20;;;;;;943408;149;27357;-73
2023/05/28 01:38:46;;;;;;;6.17;3.93;;;12.80;63.10;;;;;;966259;145;27356;-74
2023/05/28 01:41:13;;;;;;;6.87;3.90;;;12.80;63.30;;;;;;932677;151;27362;-73
2023/05/28 01:43:39;;;;;;;6.03;4.30;;;12.80;63.40;;;;;;966505;145;27314;-74
2023/05/28 01:46:06;;;;;;;4.87;3.33;;;12.80;63.50;;;;;;943982;148;27383;-73
2023/05/28 01:48:32;;;;;;;6.60;3.60;;;12.70;64.50;;;;;;967309;145;27351;-74
2023/05/28 01:50:59;;;;;;;8.20;4.40;;;12.70;63.90;;;;;;947155;147;27339;-74
2023/05/28 01:53:26;;;;;;;5.27;4.07;;;12.70;64.00;;;;;;951213;147;27433;-73
2023/05/28 01:55:55;;;;;;;4.60;3.50;;;12.70;63.90;;;;;;949115;147;27384;-74
2023/05/28 01:58:19;;;;;;;5.07;3.80;;;12.70;64.20;;;;;;947341;147;27292;-74
2023/05/28 02:00:48;;;;;;;9.07;4.40;;;12.60;64.00;;;;;;931427;149;27337;-74
2023/05/28 02:03:15;;;;;;;4.40;3.90;;;12.60;64.00;;;;;;924916;151;27335;-74
2023/05/28 02:05:41;;;;;;;6.57;4.07;;;12.50;64.10;;;;;;949347;147;27832;-74
2023/05/28 02:08:08;;;;;;;5.80;3.63;;;12.50;64.30;;;;;;949386;147;27756;-75
2023/05/28 02:10:35;;;;;;;4.63;3.73;;;12.50;64.50;;;;;;949707;147;27271;-74
2023/05/28 02:13:01;;;;;;;8.13;4.30;;;12.50;64.60;;;;;;949465;147;27314;-74
2023/05/28 02:15:28;;;;;;;4.73;3.87;;;12.50;64.80;;;;;;929472;150;27332;-73
2023/05/28 02:17:55;;;;;;;4.57;3.67;;;12.40;64.80;;;;;;941323;149;27356;-73
2023/05/28 02:20:21;;;;;;;5.37;3.90;;;12.40;65.00;;;;;;941870;148;27274;-74
2023/05/28 02:22:48;;;;;;;5.83;4.00;;;12.30;65.30;;;;;;940467;148;27429;-73
2023/05/28 02:25:15;;;;;;;3.90;3.50;;;12.30;65.40;;;;;;941819;149;27318;-74
2023/05/28 02:27:41;;;;;;;6.90;4.30;;;12.30;65.50;;;;;;943020;148;27366;-74
2023/05/28 02:30:08;;;;;;;6.13;3.93;;;12.30;65.90;;;;;;941553;148;27368;-74
2023/05/28 02:32:34;;;;;;;6.90;4.30;;;12.30;65.90;;;;;;941872;148;27402;-74
2023/05/28 02:35:01;;;;;;;5.97;3.73;;;12.20;66.10;;;;;;941743;149;27407;-73
2023/05/28 02:37:27;;;;;;;4.53;3.50;;;12.20;66.90;;;;;;941366;148;27394;-73
2023/05/28 02:39:54;;;;;;;7.17;4.07;;;12.20;66.40;;;;;;942136;149;27362;-74
2023/05/28 02:42:20;;;;;;;6.77;3.20;;;12.20;66.50;;;;;;941228;148;27375;-74
2023/05/28 02:44:47;;;;;;;4.37;3.67;;;12.20;66.50;;;;;;939507;148;27377;-74
2023/05/28 02:47:14;;;;;;;5.13;3.77;;;12.30;66.70;;;;;;941699;148;27341;-74
2023/05/28 02:49:40;;;;;;;4.83;3.50;;;12.30;66.70;;;;;;941499;148;27450;-74
2023/05/28 02:52:07;;;;;;;4.47;3.87;;;12.20;66.50;;;;;;944332;148;27396;-74
2023/05/28 02:54:33;;;;;;;5.30;3.73;;;12.20;66.80;;;;;;944499;149;27310;-73
2023/05/28 02:57:00;;;;;;;6.90;4.43;;;12.20;66.70;;;;;;943658;148;27675;-72
2023/05/28 02:59:26;;;;;;;6.13;4.00;;;12.20;66.70;;;;;;944754;148;27377;-72
2023/05/28 03:01:53;;;;;;;5.83;3.30;;;12.20;66.90;;;;;;945133;148;27492;-72
2023/05/28 03:04:20;;;;;;;6.47;4.20;;;12.10;67.00;;;;;;944271;149;27317;-73
2023/05/28 03:06:46;;;;;;;6.27;3.80;;;12.10;67.00;;;;;;944793;148;27442;-74
2023/05/28 03:09:13;;;;;;;7.83;3.73;;;12.10;67.00;;;;;;944406;149;27466;-74
2023/05/28 03:11:39;;;;;;;4.80;3.57;;;12.10;67.20;;;;;;944329;148;27365;-74
2023/05/28 03:14:06;;;;;;;5.50;5.00;;;12.10;67.50;;;;;;944912;148;27411;-74
2023/05/28 03:16:36;;;;;;;7.20;4.60;;;12.00;67.60;;;;;;944518;148;27338;-74
2023/05/28 03:18:59;;;;;;;4.60;4.17;;;12.00;67.70;;;;;;944538;149;27336;-74
2023/05/28 03:21:26;;;;;;;5.40;3.87;;;12.00;67.80;;;;;;945216;149;27352;-74
2023/05/28 03:23:52;;;;;;;6.17;4.13;;;12.00;67.80;;;;;;944350;148;27373;-74
2023/05/28 03:26:19;;;;;;;7.27;4.13;;;11.90;67.90;;;;;;945060;148;27395;-74
2023/05/28 03:28:45;;;;;;;6.50;3.70;;;11.90;68.10;;;;;;945050;149;27384;-75
2023/05/28 03:31:13;;;;;;;8.47;4.50;;;11.90;68.20;;;;;;946077;148;27345;-75
2023/05/28 03:33:39;;;;;;;5.67;3.93;;;11.90;68.30;;;;;;944612;148;27488;-75
2023/05/28 03:36:06;;;;;;;5.23;4.03;;;11.90;68.20;;;;;;944603;148;27258;-75
2023/05/28 03:38:32;;;;;;;7.33;4.00;;;11.90;68.30;;;;;;945091;148;27349;-75
2023/05/28 03:40:58;;;;;;;4.07;3.60;;;11.90;68.40;;;;;;943832;149;27368;-75
2023/05/28 03:43:25;;;;;;;6.57;4.27;;;11.90;68.40;;;;;;945619;148;27393;-76
2023/05/28 03:45:52;;;;;;;6.47;3.60;;;11.90;68.80;;;;;;945580;148;27356;-76
2023/05/28 03:48:18;;;;;;;6.57;4.10;;;11.90;68.60;;;;;;946321;148;27334;-76
2023/05/28 03:50:45;;;;;;;4.60;4.07;;;11.90;68.80;;;;;;946130;149;27410;-76
2023/05/28 03:53:11;;;;;;;6.37;4.57;;;11.90;68.90;;;;;;945661;149;27341;-76
2023/05/28 03:55:38;;;;;;;6.23;3.33;;;11.90;69.10;;;;;;946098;148;27480;-75
2023/05/28 03:58:05;;;;;;;5.53;4.00;;;11.90;69.10;;;;;;945620;148;27407;-75
2023/05/28 04:00:31;;;;;;;5.07;3.73;;;12.00;69.20;;;;;;945784;148;27289;-75
2023/05/28 04:02:58;;;;;;;5.50;3.63;;;12.00;69.30;;;;;;946470;149;27286;-75
2023/05/28 04:05:24;;;;;;;5.60;3.50;;;12.00;69.40;;;;;;946162;148;27461;-74
2023/05/28 04:07:51;;;;;;;4.20;3.60;;;12.10;69.50;;;;;;945769;148;27357;-74
2023/05/28 04:10:18;;;;;;;4.27;3.87;;;12.10;69.50;;;;;;945714;148;28113;-74
2023/05/28 04:12:44;;;;;;;4.23;3.20;;;12.10;69.60;;;;;;946113;149;27349;-74
2023/05/28 04:15:11;;;;;;;4.67;4.07;;;12.20;69.50;;;;;;946556;149;27372;-74
2023/05/28 04:17:37;;;;;;;5.03;3.17;;;12.20;69.60;;;;;;945234;148;27466;-74
2023/05/28 04:20:07;;;;;;;6.80;4.50;;;12.30;69.80;;;;;;945954;148;27324;-74
2023/05/28 04:22:33;;;;;;;4.93;3.73;;;12.30;69.70;;;;;;945716;149;27462;-74
2023/05/28 04:25:01;;;;;;;5.83;4.07;;;12.40;69.90;;;;;;945705;148;27442;-74
2023/05/28 04:27:26;;;;;;;5.27;4.00;;;12.40;70.00;;;;;;944913;149;27388;-74
2023/05/28 04:29:54;;;;;;;6.70;3.70;;;12.50;70.10;;;;;;946410;148;27366;-74
2023/05/28 04:32:19;;;;;;;5.83;3.77;;;12.60;70.20;;;;;;946324;148;27345;-74
2023/05/28 04:34:47;;;;;;;6.47;4.23;;;12.70;70.10;;;;;;945679;148;27349;-74
2023/05/28 04:37:13;;;;;;;4.77;3.43;;;12.80;69.90;;;;;;945154;148;27377;-74
2023/05/28 04:39:39;;;;;;;5.80;4.40;;;12.90;69.80;;;;;;945607;149;27750;-73
2023/05/28 04:42:07;;;;;;;5.70;3.73;;;13.00;69.80;;;;;;945200;149;27329;-72
2023/05/28 04:44:32;;;;;;;4.23;3.77;;;13.20;69.80;;;;;;945079;148;27350;-73
2023/05/28 04:46:59;;;;;;;5.40;4.10;;;13.30;69.60;;;;;;946050;149;27369;-73
2023/05/28 04:49:26;;;;;;;5.00;4.50;;;13.40;69.50;;;;;;946064;148;27365;-73
2023/05/28 04:51:52;;;;;;;4.83;4.00;;;13.50;69.40;;;;;;945255;148;27320;-73
2023/05/28 04:54:19;;;;;;;6.13;4.07;;;13.70;69.50;;;;;;946087;149;27335;-73
2023/05/28 04:56:45;;;;;;;4.60;3.53;;;13.90;69.80;;;;;;946149;148;27811;-73
2023/05/28 04:59:12;;;;;;;3.80;3.40;;;14.10;70.20;;;;;;945915;148;27380;-73
2023/05/28 05:01:41;;;;;;;5.70;3.72;;;14.50;70.60;;;;;;945362;148;27474;-73
2023/05/28 05:04:08;;;;;;;4.25;3.15;;;14.90;70.90;;;;;;945869;149;27711;-73
2023/05/28 05:06:34;;;;;;;4.72;3.25;;;15.30;70.30;;;;;;946252;149;27454;-73
2023/05/28 05:09:01;;;;;;;4.85;3.58;;;15.90;71.00;;;;;;946096;149;27385;-74
2023/05/28 05:11:27;;;;;;;5.10;3.37;;;16.50;70.80;;;;;;945794;149;27305;-74
2023/05/28 05:13:54;;;;;;;3.72;2.75;;;17.20;70.20;;;;;;945642;148;27325;-74
2023/05/28 05:16:20;;;;;;;4.40;2.87;;;17.90;69.20;;;;;;945510;148;27364;-74
2023/05/28 05:18:47;;;;;;;4.15;2.90;;;18.60;68.20;;;;;;946060;149;27357;-73
2023/05/28 05:21:14;;;;;;;3.40;3.00;;;19.30;67.00;;;;;;946043;149;27403;-74
2023/05/28 05:23:40;;;;;;;5.53;3.00;;;20.00;65.70;;;;;;945975;149;27330;-74
2023/05/28 05:26:12;;;;;;;3.42;2.90;;;20.70;64.60;;;;;;945940;148;27349;-74
2023/05/28 05:28:36;;;;;;;3.12;2.27;;;21.40;63.40;;;;;;945648;149;27478;-74
2023/05/28 05:31:03;;;;;;;3.60;2.37;;;22.10;62.10;;;;;;946416;148;27319;-74
2023/05/28 05:33:30;;;;;;;2.87;2.52;;;22.70;60.60;;;;;;949174;146;27329;-74
2023/05/28 05:35:56;;;;;;;3.72;2.70;;;23.30;59.60;;;;;;949689;146;27255;-75
2023/05/28 05:38:23;;;;;;;3.12;2.40;;;23.90;58.90;;;;;;949468;146;27343;-75
2023/05/28 05:40:50;;;;;;;3.33;2.37;;;24.60;58.20;;;;;;950748;147;27339;-75
2023/05/28 05:43:16;;;;;;;3.35;2.58;;;25.20;57.40;;;;;;950225;147;27404;-76
2023/05/28 05:45:42;;;;;;;3.35;2.30;;;25.90;56.60;;;;;;950844;147;27256;-76
2023/05/28 05:48:09;;;;;;;3.12;2.50;;;26.50;55.70;;;;;;950904;147;27331;-76
2023/05/28 05:50:36;;;;;;;3.10;2.83;;;27.20;54.70;;;;;;927339;150;27454;-76
2023/05/28 05:53:03;;;;;;;3.35;2.92;;;27.80;53.90;;;;;;946624;145;27337;-76
2023/05/28 05:55:29;;;;;;;4.30;2.67;;;28.40;53.10;;;;;;967530;145;27257;-76
2023/05/28 05:57:58;;;;;;;3.17;2.75;;;29.00;52.30;;;;;;955280;147;27315;-76
2023/05/28 06:00:23;;;;;;;3.80;2.80;;;29.50;51.30;;;;;;967038;145;26367;-76
2023/05/28 06:02:49;;;;;;;3.55;2.55;;;30.10;50.80;;;;;;950807;148;27449;-76
2023/05/28 06:05:15;;;;;;;3.10;2.45;;;30.50;49.10;;;;;;968467;145;27304;-76
2023/05/28 06:07:42;;;;;;;2.60;2.37;;;31.00;48.40;;;;;;969207;145;27386;-75
2023/05/28 06:10:08;;;;;;;2.92;2.52;;;31.40;47.60;;;;;;969076;145;27369;-75
2023/05/28 06:12:35;;;;;;;3.02;2.25;;;31.80;47.10;;;;;;950335;148;26271;-76
2023/05/28 06:15:03;;;;;;;4.05;3.00;;;32.20;46.60;;;;;;952159;147;27441;-76
2023/05/28 06:17:28;;;;;;;3.45;2.60;;;32.60;46.10;;;;;;949464;148;27418;-76
2023/05/28 06:19:55;;;;;;;4.12;2.70;;;33.00;45.60;;;;;;969002;145;26283;-76
2023/05/28 06:22:22;;;;;;;3.83;3.33;;;33.40;45.00;;;;;;951629;148;27377;-76
2023/05/28 06:24:49;;;;;;;2.80;2.47;;;33.90;44.50;;;;;;952047;148;26311;-76
2023/05/28 06:27:14;;;;;;;3.47;2.50;;;34.30;43.90;;;;;;951514;148;26320;-75
2023/05/28 06:29:41;;;;;;;3.75;2.77;;;34.70;43.10;;;;;;955919;147;26192;-74
2023/05/28 06:32:08;;;;;;;3.05;2.47;;;35.20;42.60;;;;;;965834;148;26242;-73
2023/05/28 06:34:34;;;;;;;4.53;2.87;;;35.60;41.90;;;;;;968472;145;26210;-73
2023/05/28 06:37:01;;;;;;;3.70;2.40;;;36.00;40.70;;;;;;967971;145;26202;-74
2023/05/28 06:39:27;;;;;;;5.08;2.62;;;36.30;40.60;;;;;;968687;145;26167;-74
2023/05/28 06:41:54;;;;;;;2.83;2.45;;;36.70;39.90;;;;;;951741;148;26259;-75
2023/05/28 06:44:21;;;;;;;2.50;2.30;;;36.90;39.20;;;;;;968470;145;27806;-75
2023/05/28 06:46:47;;;;;;;2.58;2.30;;;37.10;38.90;;;;;;968146;145;26249;-75
2023/05/28 06:49:14;;;;;;;3.65;2.62;;;37.40;38.50;;;;;;968172;145;26145;-75
2023/05/28 06:51:40;;;;;;;2.95;2.58;;;37.60;38.10;;;;;;951472;148;26220;-75
2023/05/28 06:54:07;;;;;;;2.77;2.40;;;37.90;37.70;;;;;;941881;148;26399;-75
2023/05/28 06:56:34;;;;;;;2.10;1.90;;;38.10;37.40;;;;;;950127;147;26234;-75
2023/05/28 06:59:00;;;;;;;2.55;2.35;;;38.40;37.00;;;;;;949803;147;26213;-75
2023/05/28 07:01:27;;;;;;;3.33;2.87;;;38.70;36.60;;;;;;932757;149;26264;-76
2023/05/28 07:03:53;;;;;;;2.92;2.22;;;38.90;36.00;;;;;;936471;150;26779;-76
2023/05/28 07:06:20;;;;;;;2.60;2.40;;;39.20;35.40;;;;;;924668;151;26355;-76
2023/05/28 07:08:46;;;;;;;2.50;2.30;;;39.40;34.50;;;;;;950413;147;26206;-76
2023/05/28 07:11:13;;;;;;;3.92;2.52;;;39.50;34.20;;;;;;949969;147;26204;-76
2023/05/28 07:13:40;;;;;;;2.55;2.35;;;39.60;34.00;;;;;;951096;147;26229;-76
2023/05/28 07:16:06;;;;;;;2.62;2.22;;;39.70;33.70;;;;;;949454;147;26325;-76
2023/05/28 07:18:33;;;;;;;3.35;2.30;;;39.80;33.70;;;;;;950304;147;26210;-76
2023/05/28 07:21:00;;;;;;;3.27;2.55;;;40.00;33.60;;;;;;931979;150;26242;-75
2023/05/28 07:23:26;;;;;;;2.60;2.27;;;40.30;33.10;;;;;;927044;150;26292;-76
2023/05/28 07:25:53;;;;;;;2.50;2.30;;;40.60;32.90;;;;;;949951;147;26338;-77
2023/05/28 07:28:19;;;;;;;2.80;2.27;;;40.90;32.70;;;;;;960440;146;26355;-76
2023/05/28 07:30:46;;;;;;;2.25;2.05;;;41.30;32.50;;;;;;948723;147;26221;-74
2023/05/28 07:33:12;;;;;;;3.45;2.05;;;41.60;32.00;;;;;;950219;147;26256;-74
2023/05/28 07:35:39;;;;;;;2.90;2.30;;;41.80;31.20;;;;;;948225;147;26249;-75
2023/05/28 07:38:06;;;;;;;2.25;1.95;;;42.20;30.90;;;;;;949723;147;26323;-74
2023/05/28 07:40:32;;;;;;;2.98;2.33;;;42.40;30.20;;;;;;963679;145;26206;-74
2023/05/28 07:42:59;;;;;;;3.20;2.50;;;42.60;30.00;;;;;;963897;145;26150;-75
2023/05/28 07:45:25;;;;;;;3.02;2.42;;;42.80;29.90;;;;;;962623;145;26182;-74
2023/05/28 07:47:52;;;;;;;3.75;2.37;;;43.00;29.50;;;;;;962159;145;26253;-74
2023/05/28 07:50:19;;;;;;;2.70;2.50;;;43.10;29.00;;;;;;962921;145;26189;-75
2023/05/28 07:52:45;;;;;;;2.30;2.10;;;43.30;28.90;;;;;;962597;145;26507;-75
2023/05/28 07:55:12;;;;;;;3.85;2.52;;;43.50;29.00;;;;;;962414;146;26315;-75
2023/05/28 07:57:38;;;;;;;2.90;2.25;;;43.60;28.60;;;;;;960955;147;26339;-75
2023/05/28 08:00:15;;;;;;;2.55;2.35;;;43.80;28.30;;;;;;961555;149;26376;-75
2023/05/28 08:02:34;;;;;;;2.45;2.22;;;44.00;28.10;;;;;;960004;147;26206;-75
2023/05/28 08:05:01;;;;;;;2.75;2.40;;;44.20;27.80;;;;;;959494;147;26267;-75
2023/05/28 08:07:28;;;;;;;3.45;2.20;;;44.40;27.60;;;;;;961776;147;26261;-75
2023/05/28 08:09:54;;;;;;;4.80;2.60;;;44.50;27.40;;;;;;961230;147;26369;-75
2023/05/28 08:12:21;;;;;;;4.00;2.70;;;44.70;27.20;;;;;;961532;147;26210;-75
2023/05/28 08:14:47;;;;;;;2.75;2.50;;;44.90;26.90;;;;;;945034;150;26190;-75
2023/05/28 08:17:14;;;;;;;2.58;2.17;;;44.90;26.70;;;;;;952878;148;26287;-75
2023/05/28 08:19:41;;;;;;;3.62;2.52;;;45.00;26.70;;;;;;946859;149;26749;-75
2023/05/28 08:22:08;;;;;;;2.72;2.33;;;45.20;26.70;;;;;;947118;149;26334;-75
2023/05/28 08:24:34;;;;;;;3.17;2.55;;;45.40;26.30;;;;;;940825;150;26196;-75
2023/05/28 08:27:01;;;;;;;3.15;2.37;;;45.60;26.20;;;;;;941222;150;26206;-77
2023/05/28 08:29:27;;;;;;;2.52;2.33;;;45.70;25.90;;;;;;936429;150;26352;-75
2023/05/28 08:31:53;;;;;;;2.65;2.40;;;45.80;25.80;;;;;;943170;150;26263;-75
2023/05/28 08:34:20;;;;;;;2.72;2.20;;;45.80;25.60;;;;;;955918;147;26276;-76
2023/05/28 08:36:47;;;;;;;2.40;2.20;;;45.90;25.40;;;;;;955749;147;26223;-76
2023/05/28 08:39:13;;;;;;;4.30;2.22;;;46.00;25.40;;;;;;951544;148;26217;-74
2023/05/28 08:41:40;;;;;;;2.35;2.15;;;46.10;25.30;;;;;;944117;148;26369;-75
2023/05/28 08:44:06;;;;;;;2.77;2.40;;;46.10;25.20;;;;;;946729;149;26178;-74
2023/05/28 08:46:33;;;;;;;2.40;2.12;;;46.30;25.40;;;;;;945637;149;26177;-74
2023/05/28 08:49:00;;;;;;;2.83;2.25;;;46.50;25.10;;;;;;946392;148;26245;-74
2023/05/28 08:51:26;;;;;;;2.00;1.90;;;46.70;25.00;;;;;;946754;149;26377;-74
2023/05/28 08:53:53;;;;;;;2.35;2.15;;;46.80;24.50;;;;;;945227;149;26345;-74
2023/05/28 08:56:20;;;;;;;2.65;2.20;;;46.80;24.40;;;;;;943187;148;26280;-73
2023/05/28 08:58:46;;;;;;;2.83;2.58;;;46.80;24.30;;;;;;932016;149;26293;-74
2023/05/28 09:01:13;;;;;;;2.75;2.08;;;46.90;24.20;;;;;;931951;149;26248;-75
2023/05/28 09:03:40;;;;;;;1.95;1.82;;;46.80;23.90;;;;;;926966;150;26295;-74
2023/05/28 09:06:06;;;;;;;2.40;2.20;;;46.70;24.00;;;;;;944260;148;26318;-75
2023/05/28 09:08:32;;;;;;;3.00;2.60;;;46.70;24.00;;;;;;944384;149;26267;-75
2023/05/28 09:10:59;;;;;;;2.40;2.20;;;46.70;23.80;;;;;;945101;149;26290;-75
2023/05/28 09:13:26;;;;;;;2.30;2.12;;;46.60;23.80;;;;;;942966;149;26269;-74
2023/05/28 09:15:52;;;;;;;3.77;2.50;;;46.40;23.50;;;;;;944989;148;26217;-74
2023/05/28 09:18:21;;;;;;;3.08;2.20;;;46.40;23.60;;;;;;945157;148;26280;-75
2023/05/28 09:20:51;;;;;;;2.50;2.30;;;46.20;23.70;;;;;;945550;148;26347;-75
2023/05/28 09:23:18;;;;;;;2.85;2.42;;;46.20;23.40;;;;;;944665;148;26275;-73
2023/05/28 09:25:47;;;;;;;2.60;2.12;;;46.10;23.50;;;;;;945160;148;26237;-73
2023/05/28 09:28:16;;;;;;;2.80;2.30;;;45.90;23.40;;;;;;946129;149;26335;-75
2023/05/28 09:30:43;;;;;;;2.90;2.47;;;45.70;23.40;;;;;;946488;149;26409;-75
2023/05/28 09:33:09;;;;;;;3.60;2.50;;;45.60;23.60;;;;;;946541;148;26377;-75
2023/05/28 09:35:36;;;;;;;2.65;2.20;;;45.40;23.60;;;;;;945281;148;26257;-75
2023/05/28 09:38:07;;;;;;;2.95;2.30;;;45.20;23.50;;;;;;944884;148;26330;-75
2023/05/28 09:40:32;;;;;;;2.70;2.37;;;44.90;23.40;;;;;;946177;148;26197;-75
2023/05/28 09:42:59;;;;;;;3.42;2.37;;;44.80;23.50;;;;;;946237;149;26370;-75
2023/05/28 09:45:25;;;;;;;2.83;2.50;;;44.50;23.40;;;;;;945058;149;26236;-75
2023/05/28 09:47:52;;;;;;;2.52;2.25;;;44.20;23.40;;;;;;945507;149;26229;-75
2023/05/28 09:50:18;;;;;;;2.90;2.65;;;43.80;23.30;;;;;;944644;149;26255;-75
2023/05/28 09:52:45;;;;;;;3.02;2.70;;;43.30;23.40;;;;;;945169;149;26265;-75
2023/05/28 09:55:20;;;;;;;3.47;2.20;;;42.90;23.50;;;;;;946109;149;26283;-75
2023/05/28 09:57:47;;;;;;;2.85;2.20;;;42.40;23.70;;;;;;954373;150;26219;-75
2023/05/28 10:00:21;;;;;;;3.83;2.50;;;42.00;23.90;;;;;;952510;147;26244;-75
2023/05/28 10:03:01;;;;;;;3.50;2.20;;;41.60;23.90;;;;;;952846;148;26283;-75
2023/05/28 10:05:27;;;;;;;3.60;2.58;;;41.20;24.00;;;;;;953002;150;26234;-75
2023/05/28 10:07:53;;;;;;;3.60;2.37;;;40.80;24.10;;;;;;953926;150;26301;-75
2023/05/28 10:10:20;;;;;;;2.58;2.37;;;40.30;24.10;;;;;;954088;150;26322;-75
2023/05/28 10:12:47;;;;;;;2.45;2.25;;;39.90;24.20;;;;;;954517;147;26252;-75
2023/05/28 10:15:13;;;;;;;2.80;2.47;;;39.50;24.20;;;;;;953862;150;26316;-75
2023/05/28 10:17:40;;;;;;;5.58;2.77;;;39.10;24.20;;;;;;954108;150;26243;-75
2023/05/28 10:20:10;;;;;;;3.65;2.98;;;38.80;24.30;;;;;;953610;150;26287;-75
2023/05/28 10:22:33;;;;;;;3.55;2.72;;;38.40;24.30;;;;;;953991;150;26263;-75
2023/05/28 10:25:02;;;;;;;4.30;2.67;;;37.90;24.40;;;;;;954024;150;26255;-75
2023/05/28 10:27:30;;;;;;;3.00;2.70;;;37.40;24.80;;;;;;953511;150;27398;-75
2023/05/28 10:29:55;;;;;;;4.03;2.83;;;37.10;24.90;;;;;;954260;150;27463;-75
2023/05/28 10:32:22;;;;;;;3.87;2.95;;;36.70;25.20;;;;;;953623;147;27368;-74
2023/05/28 10:34:49;;;;;;;4.83;2.95;;;36.30;25.30;;;;;;954399;150;27309;-75
2023/05/28 10:37:15;;;;;;;2.95;2.67;;;36.00;25.40;;;;;;954226;150;27281;-74
2023/05/28 10:39:42;;;;;;;4.37;2.87;;;35.60;25.50;;;;;;952019;147;27341;-74
2023/05/28 10:42:08;;;;;;;5.67;2.60;;;35.20;25.50;;;;;;953514;147;27376;-75
2023/05/28 10:45:00;;;;;;;3.02;2.67;;;34.90;25.60;;;;;;951882;150;27351;-75
2023/05/28 10:47:35;;;;;;;4.62;3.30;;;34.50;26.00;;;;;;953297;150;27343;-74
2023/05/28 10:50:10;;;;;;;5.78;3.10;;;34.10;26.20;;;;;;952706;150;27355;-74
2023/05/28 10:52:37;;;;;;;3.40;2.90;;;33.80;26.60;;;;;;953537;150;27361;-75
2023/05/28 10:55:03;;;;;;;3.98;2.70;;;33.50;26.70;;;;;;953630;150;27282;-74
2023/05/28 10:57:45;;;;;;;3.40;2.83;;;33.30;26.90;;;;;;953358;150;27376;-75
2023/05/28 11:00:14;;;;;;;3.72;3.02;;;33.10;27.00;;;;;;953355;147;27365;-74
2023/05/28 11:02:44;;;;;;;3.08;2.77;;;32.80;27.20;;;;;;951755;148;27396;-74
2023/05/28 11:05:10;;;;;;;3.58;2.80;;;32.70;27.50;;;;;;954074;147;27317;-74
2023/05/28 11:07:40;;;;;;;5.10;2.80;;;32.50;27.40;;;;;;954318;150;27340;-74
2023/05/28 11:10:07;;;;;;;4.20;3.00;;;32.30;27.50;;;;;;953039;148;27388;-74
2023/05/28 11:12:33;;;;;;;5.33;3.10;;;32.10;27.70;;;;;;953275;150;27412;-74
2023/05/28 11:14:59;;;;;;;3.95;2.62;;;31.90;27.80;;;;;;953140;150;27321;-75
2023/05/28 11:17:26;;;;;;;3.20;2.90;;;31.80;28.20;;;;;;953999;150;27343;-74
2023/05/28 11:19:53;;;;;;;2.95;2.65;;;31.70;28.20;;;;;;954056;150;27297;-74
2023/05/28 11:22:19;;;;;;;3.08;2.77;;;31.60;28.50;;;;;;954139;147;27506;-75
2023/05/28 11:25:00;;;;;;;3.55;2.52;;;31.60;28.70;;;;;;953491;150;27364;-77
2023/05/28 11:27:27;;;;;;;4.08;2.83;;;31.50;28.80;;;;;;954307;150;27431;-77
2023/05/28 11:29:54;;;;;;;4.47;2.80;;;31.50;28.90;;;;;;954251;150;27337;-76
2023/05/28 11:32:23;;;;;;;3.52;3.00;;;31.50;29.10;;;;;;953005;148;27493;-77
2023/05/28 11:34:49;;;;;;;3.22;2.90;;;31.40;28.90;;;;;;952198;148;27340;-77
2023/05/28 11:37:16;;;;;;;2.98;2.60;;;31.40;28.90;;;;;;953752;150;27329;-78
2023/05/28 11:39:49;;;;;;;8.83;2.55;;;31.30;28.80;;;;;;953898;149;27401;-77
2023/05/28 11:42:15;;;;;;;4.12;2.77;;;31.30;28.80;;;;;;953356;150;27368;-77
2023/05/28 11:44:45;;;;;;;3.30;2.70;;;31.20;28.90;;;;;;952472;150;27413;-77
2023/05/28 11:47:11;;;;;;;3.60;3.08;;;31.10;29.00;;;;;;953838;150;27325;-77
2023/05/28 11:49:38;;;;;;;3.92;3.17;;;31.00;28.50;;;;;;953096;150;27348;-76
2023/05/28 11:52:04;;;;;;;3.10;2.70;;;30.90;28.90;;;;;;953039;150;27978;-76
2023/05/28 11:54:31;;;;;;;3.65;2.75;;;30.70;28.90;;;;;;951969;147;27266;-77
2023/05/28 11:56:57;;;;;;;3.45;2.83;;;30.60;29.00;;;;;;952427;150;27422;-76
2023/05/28 11:59:27;;;;;;;7.05;3.83;;;30.40;29.00;;;;;;945536;149;27341;-76
2023/05/28 12:01:54;;;;;;;3.42;3.02;;;30.20;29.30;;;;;;945849;148;27422;-77
2023/05/28 12:04:24;;;;;;;4.33;2.95;;;30.20;29.50;;;;;;944478;149;27441;-77
2023/05/28 12:06:52;;;;;;;3.35;2.87;;;30.10;29.60;;;;;;947099;147;27433;-76
2023/05/28 12:09:18;;;;;;;3.45;2.77;;;30.00;29.60;;;;;;926657;150;27394;-76
2023/05/28 12:11:45;;;;;;;3.35;2.65;;;30.00;29.70;;;;;;927035;150;27329;-76
2023/05/28 12:14:11;;;;;;;4.62;3.37;;;29.90;29.90;;;;;;948322;147;27264;-76
2023/05/28 12:16:46;;;;;;;2.60;2.40;;;29.90;29.80;;;;;;928720;150;27286;-76
2023/05/28 12:19:14;;;;;;;3.20;2.87;;;29.80;29.70;;;;;;942137;148;27441;-76
2023/05/28 12:21:37;;;;;;;3.47;3.08;;;29.80;29.90;;;;;;931802;149;27423;-76
2023/05/28 12:24:15;;;;;;;3.80;2.87;;;29.80;30.00;;;;;;948495;147;27361;-77
2023/05/28 12:26:42;;;;;;;4.15;3.47;;;29.70;30.10;;;;;;926577;150;27430;-76
2023/05/28 12:29:09;;;;;;;3.65;3.08;;;29.70;30.00;;;;;;950463;147;27336;-76
2023/05/28 12:31:35;;;;;;;4.70;3.00;;;29.70;30.00;;;;;;932475;150;27376;-77
2023/05/28 12:34:02;;;;;;;3.90;3.22;;;29.60;30.10;;;;;;949841;147;27690;-76
2023/05/28 12:36:28;;;;;;;4.25;2.85;;;29.60;30.70;;;;;;935310;150;27249;-76
2023/05/28 12:38:55;;;;;;;5.83;3.02;;;29.60;30.10;;;;;;927109;150;27781;-76
2023/05/28 12:41:22;;;;;;;3.90;3.08;;;29.50;30.10;;;;;;934858;149;27452;-77
2023/05/28 12:43:48;;;;;;;3.22;2.83;;;29.50;30.30;;;;;;933018;150;27354;-76
2023/05/28 12:46:15;;;;;;;3.92;3.12;;;29.40;30.10;;;;;;932572;150;27309;-76